CheckWX is a tool to help pilots better visualize weather data.  It is not intended as a substitute for an official pre-flight weather briefing.

08:57:14 UTC

KMGY METAR
Dayton-Wright Brothers Airport
Dayton, Ohio, USA
Current

1 hour ago

KMGY 180753Z AUTO 00000KT 10SM CLR 05/02 A3004 RMK AO2 SLP173 T00500022
Observed
Oct-18 @ 07:53 UTC
Visibility
10 SM
Flight Rules
VFR
Cloud Levels
  • Clear skies
Temperature
C / 41°F
Dewpoint
C / 36°F
Humidity
81%
Altimeter
30.04" Hg
Pressure
1017.32 hPa
Previous

2 hours ago

KMGY 180653Z AUTO 00000KT 10SM CLR 05/02 A3003 RMK AO2 SLP169 T00500022
Observed
Oct-18 @ 06:53 UTC
Visibility
10 SM
Flight Rules
VFR
Cloud Levels
  • Clear skies
Temperature
C / 41°F
Dewpoint
C / 36°F
Humidity
81%
Altimeter
30.03" Hg
Pressure
1016.92 hPa
Previous

3 hours ago

KMGY 180553Z AUTO 00000KT 10SM CLR 06/02 A3002 RMK AO2 SLP168 T00610022 10122 20056 50002
Observed
Oct-18 @ 05:53 UTC
Visibility
10 SM
Flight Rules
VFR
Cloud Levels
  • Clear skies
Temperature
C / 43°F
Dewpoint
C / 36°F
Humidity
76%
Altimeter
30.02" Hg
Pressure
1016.62 hPa